createdAt,value
2018-11-23T00:00:31.475Z,1.87
2018-11-23T00:02:59.269Z,1.91
2018-11-23T00:05:26.512Z,1.86
2018-11-23T00:07:54.444Z,1.81
2018-11-23T00:10:22.927Z,1.84
2018-11-23T00:12:50.229Z,1.71
2018-11-23T00:15:18.691Z,1.65
2018-11-23T00:17:45.978Z,1.73
2018-11-23T00:20:18.510Z,1.64
2018-11-23T00:22:45.839Z,1.61
2018-11-23T00:25:14.373Z,1.65
2018-11-23T00:27:41.787Z,1.70
2018-11-23T00:30:11.794Z,1.65
2018-11-23T00:32:39.226Z,1.60
2018-11-23T00:35:07.806Z,1.67
2018-11-23T00:37:35.099Z,1.73
2018-11-23T00:40:02.392Z,1.80
2018-11-23T00:42:29.584Z,1.78
2018-11-23T00:44:56.810Z,1.83
2018-11-23T00:47:24.169Z,1.74
2018-11-23T00:49:51.385Z,1.79
2018-11-23T00:52:18.633Z,1.80
2018-11-23T00:54:45.828Z,1.81
2018-11-23T00:57:13.086Z,1.72
2018-11-23T00:59:40.339Z,1.63
2018-11-23T01:02:08.172Z,1.31
2018-11-23T01:04:36.269Z,1.36
2018-11-23T01:07:03.930Z,1.36
2018-11-23T01:09:31.155Z,1.45
2018-11-23T01:11:58.399Z,1.47
2018-11-23T01:14:25.774Z,1.50
2018-11-23T01:16:55.314Z,1.53
2018-11-23T01:19:22.641Z,1.63
2018-11-23T01:21:49.996Z,1.55
2018-11-23T01:24:17.171Z,1.59
2018-11-23T01:26:44.440Z,1.60
2018-11-23T01:29:11.711Z,1.75
2018-11-23T01:31:39.326Z,1.92
2018-11-23T01:34:06.732Z,2.04
2018-11-23T01:36:33.990Z,2.05
2018-11-23T01:39:01.213Z,2.07
2018-11-23T01:41:28.574Z,2.00
2018-11-23T01:43:55.836Z,1.88
2018-11-23T01:46:23.019Z,1.85
2018-11-23T01:48:50.276Z,1.75
2018-11-23T01:51:17.514Z,1.85
2018-11-23T01:53:44.764Z,1.98
2018-11-23T01:56:14.788Z,2.05
2018-11-23T01:58:42.041Z,2.04
2018-11-23T02:01:09.321Z,2.03
2018-11-23T02:03:36.592Z,2.11
2018-11-23T02:06:03.811Z,2.27
2018-11-23T02:08:31.086Z,2.47
2018-11-23T02:10:58.290Z,2.45
2018-11-23T02:13:25.518Z,2.50
2018-11-23T02:15:52.808Z,2.52
2018-11-23T02:18:20.102Z,2.53
2018-11-23T02:20:47.270Z,2.45
2018-11-23T02:23:14.508Z,2.52
2018-11-23T02:25:41.823Z,2.40
2018-11-23T02:28:09.105Z,2.33
2018-11-23T02:30:36.293Z,2.24
2018-11-23T02:33:03.776Z,2.23
2018-11-23T02:35:31.019Z,2.25
2018-11-23T02:37:58.270Z,2.38
2018-11-23T02:40:25.671Z,2.27
2018-11-23T02:42:52.930Z,2.20
2018-11-23T02:45:21.626Z,2.12
2018-11-23T02:47:49.053Z,1.96
2018-11-23T02:50:16.308Z,1.92
2018-11-23T02:52:43.937Z,1.87
2018-11-23T03:00:19.870Z,1.79
2018-11-23T03:02:47.103Z,1.81
2018-11-23T03:05:16.140Z,1.84
2018-11-23T03:07:43.609Z,1.88
2018-11-23T03:10:12.189Z,1.99
2018-11-23T03:12:40.466Z,2.08
2018-11-23T03:15:09.203Z,2.04
2018-11-23T03:17:36.490Z,2.00
2018-11-23T03:20:04.610Z,1.81
2018-11-23T03:22:31.814Z,1.72
2018-11-23T03:24:59.071Z,1.87
2018-11-23T03:27:26.491Z,1.93
2018-11-23T03:29:54.395Z,2.01
2018-11-23T03:32:21.637Z,2.07
2018-11-23T03:34:58.037Z,2.09
2018-11-23T03:37:25.600Z,2.15
2018-11-23T03:39:52.921Z,2.14
2018-11-23T03:42:20.113Z,2.16
2018-11-23T03:44:49.633Z,1.53
2018-11-23T03:47:17.627Z,1.91
2018-11-23T03:49:44.917Z,1.91
2018-11-23T03:52:12.149Z,2.10
2018-11-23T03:54:39.325Z,2.26
2018-11-23T03:57:06.649Z,2.28
2018-11-23T03:59:33.931Z,2.31
2018-11-23T04:04:26.195Z,2.39
2018-11-23T04:06:53.457Z,2.38
2018-11-23T04:09:20.847Z,2.24
2018-11-23T04:11:48.077Z,2.19
2018-11-23T04:14:15.336Z,2.08
2018-11-23T04:21:35.174Z,2.26
2018-11-23T04:24:02.414Z,2.16
2018-11-23T04:26:29.771Z,2.06
2018-11-23T04:28:57.038Z,2.17
2018-11-23T04:31:24.257Z,2.18
2018-11-23T04:33:51.584Z,2.27
2018-11-23T04:36:18.839Z,2.39
2018-11-23T04:38:46.144Z,2.27
2018-11-23T04:41:13.430Z,2.20
2018-11-23T04:43:40.655Z,2.21
2018-11-23T04:46:07.951Z,1.84
2018-11-23T04:48:35.225Z,1.66
2018-11-23T04:51:02.668Z,1.47
2018-11-23T04:53:29.921Z,1.65
2018-11-23T04:55:57.233Z,1.84
2018-11-23T04:58:24.496Z,1.98
2018-11-23T05:00:51.727Z,2.02
2018-11-23T05:03:19.068Z,2.10
2018-11-23T05:05:46.283Z,2.17
2018-11-23T05:08:13.567Z,2.26
2018-11-23T05:10:40.722Z,2.40
2018-11-23T05:13:07.952Z,2.44
2018-11-23T05:15:35.202Z,2.24
2018-11-23T05:18:02.468Z,2.14
2018-11-23T05:20:29.739Z,2.09
2018-11-23T05:22:57.010Z,2.00
2018-11-23T05:25:24.336Z,2.02
2018-11-23T05:27:51.554Z,2.08
2018-11-23T05:30:19.971Z,2.14
2018-11-23T05:32:47.238Z,2.08
2018-11-23T05:35:15.477Z,1.67
2018-11-23T05:37:42.790Z,1.68
2018-11-23T05:40:12.832Z,1.83
2018-11-23T05:42:40.128Z,2.05
2018-11-23T05:45:09.447Z,1.97
2018-11-23T05:47:36.761Z,1.88
2018-11-23T05:50:05.705Z,1.86
2018-11-23T05:52:32.999Z,1.73
2018-11-23T05:55:00.219Z,1.80
2018-11-23T05:57:27.533Z,1.87
2018-11-23T05:59:54.774Z,2.01
2018-11-23T06:02:21.979Z,2.13
2018-11-23T06:04:49.189Z,2.22
2018-11-23T06:07:16.457Z,2.40
2018-11-23T06:09:43.718Z,2.26
2018-11-23T06:12:11.042Z,2.13
2018-11-23T06:14:38.301Z,1.91
2018-11-23T06:17:05.525Z,1.62
2018-11-23T06:19:32.882Z,1.70
2018-11-23T06:22:00.171Z,1.70
2018-11-23T06:24:31.993Z,1.65
2018-11-23T06:26:54.740Z,1.49
2018-11-23T06:29:21.984Z,1.44
2018-11-23T06:31:49.263Z,1.46
2018-11-23T06:34:32.537Z,1.53
2018-11-23T06:37:04.561Z,1.80
2018-11-23T06:39:32.801Z,2.00
2018-11-23T06:42:00.069Z,1.84
2018-11-23T06:44:29.257Z,1.82
2018-11-23T06:46:56.556Z,1.84
2018-11-23T06:49:24.323Z,1.69
2018-11-23T06:51:51.653Z,1.52
2018-11-23T06:54:18.839Z,1.47
2018-11-23T06:56:46.123Z,1.60
2018-11-23T06:59:13.397Z,1.77
2018-11-23T07:01:41.118Z,1.89
2018-11-23T07:04:08.394Z,2.01
2018-11-23T07:06:35.660Z,2.17
2018-11-23T07:09:04.218Z,2.51
2018-11-23T07:11:31.430Z,2.78
2018-11-23T07:14:03.928Z,2.98
2018-11-23T07:16:25.923Z,3.29
2018-11-23T07:18:53.277Z,3.89
2018-11-23T07:21:21.564Z,4.85
2018-11-23T07:23:56.973Z,5.59
2018-11-23T07:26:24.305Z,6.45
2018-11-23T07:28:51.555Z,7.00
2018-11-23T07:31:18.792Z,7.65
2018-11-23T07:33:46.064Z,8.31
2018-11-23T07:36:13.407Z,8.67
2018-11-23T07:38:40.689Z,9.04
2018-11-23T07:41:19.335Z,9.20
2018-11-23T07:43:46.542Z,9.84
2018-11-23T07:46:13.828Z,10.62
2018-11-23T07:48:41.080Z,11.39
2018-11-23T07:51:08.432Z,12.26
2018-11-23T07:53:35.654Z,13.11
2018-11-23T07:56:02.906Z,13.36
2018-11-23T07:58:30.112Z,13.68
2018-11-23T08:00:57.383Z,13.20
2018-11-23T08:03:24.683Z,13.76
2018-11-23T08:05:51.973Z,13.91
2018-11-23T08:08:19.290Z,14.10
2018-11-23T08:10:45.971Z,14.27
2018-11-23T08:13:13.243Z,14.17
2018-11-23T08:15:48.370Z,14.50
2018-11-23T08:18:15.655Z,14.65
2018-11-23T08:20:43.252Z,14.89
2018-11-23T08:23:10.479Z,15.49
2018-11-23T08:25:37.766Z,15.92
2018-11-23T08:28:05.108Z,16.70
2018-11-23T08:30:32.337Z,16.66
2018-11-23T08:32:59.592Z,16.41
2018-11-23T08:35:26.859Z,16.48
2018-11-23T08:37:54.092Z,15.97
2018-11-23T08:40:22.698Z,16.60
2018-11-23T08:42:50.873Z,17.47
2018-11-23T08:45:20.600Z,17.75
2018-11-23T08:47:47.823Z,18.18
2018-11-23T08:50:21.452Z,19.44
2018-11-23T08:52:48.998Z,19.50
2018-11-23T08:55:16.941Z,19.58
2018-11-23T08:57:44.166Z,19.52
2018-11-23T09:00:15.198Z,20.17
2018-11-23T09:02:45.097Z,19.60
2018-11-23T09:05:12.394Z,19.00
2018-11-23T09:07:39.697Z,19.79
2018-11-23T09:10:09.249Z,20.28
2018-11-23T09:12:42.122Z,20.02
2018-11-23T09:15:13.878Z,20.14
2018-11-23T09:17:41.692Z,20.19
2018-11-23T09:20:10.044Z,20.02
2018-11-23T09:22:37.350Z,20.15
2018-11-23T09:25:06.213Z,20.50
2018-11-23T09:27:33.495Z,19.22
2018-11-23T09:30:00.786Z,18.98
2018-11-23T09:32:28.048Z,18.53
2018-11-23T09:34:55.292Z,18.76
2018-11-23T09:37:22.470Z,18.03
2018-11-23T09:39:49.773Z,17.53
2018-11-23T09:42:20.815Z,17.97
2018-11-23T09:44:48.764Z,18.52
2018-11-23T09:47:16.156Z,19.09
2018-11-23T09:49:43.546Z,18.40
2018-11-23T09:52:10.854Z,18.00
2018-11-23T09:54:38.112Z,16.82
2018-11-23T09:57:05.984Z,16.08
2018-11-23T09:59:33.247Z,15.98
2018-11-23T10:02:00.862Z,15.54
2018-11-23T10:04:28.150Z,15.30
2018-11-23T10:06:55.323Z,15.08
2018-11-23T10:09:22.681Z,15.30
2018-11-23T10:11:49.926Z,15.80
2018-11-23T10:14:17.165Z,16.08
2018-11-23T10:16:45.986Z,14.81
2018-11-23T10:19:19.142Z,14.57
2018-11-23T10:21:46.364Z,14.64
2018-11-23T10:24:13.605Z,14.84
2018-11-23T10:26:40.768Z,15.04
2018-11-23T10:29:08.126Z,15.16
2018-11-23T10:31:35.470Z,14.75
2018-11-23T10:34:02.743Z,14.80
2018-11-23T10:36:29.988Z,14.85
2018-11-23T10:38:57.171Z,14.69
2018-11-23T10:41:24.403Z,14.25
2018-11-23T10:43:51.599Z,13.58
2018-11-23T10:46:18.860Z,13.94
2018-11-23T10:48:46.171Z,14.08
2018-11-23T10:51:13.507Z,14.14
2018-11-23T10:53:40.765Z,15.05
2018-11-23T10:56:08.039Z,15.74
2018-11-23T10:58:35.272Z,15.73
2018-11-23T11:01:08.228Z,15.43
2018-11-23T11:03:40.060Z,15.01
2018-11-23T11:06:13.263Z,15.20
2018-11-23T11:08:41.003Z,15.57
2018-11-23T11:11:08.798Z,15.76
2018-11-23T11:13:36.055Z,16.22
2018-11-23T11:16:03.281Z,16.15
2018-11-23T11:18:30.554Z,16.02
2018-11-23T11:20:57.835Z,15.90
2018-11-23T11:23:25.143Z,15.79
2018-11-23T11:25:52.518Z,15.45
2018-11-23T11:28:19.787Z,14.97
2018-11-23T11:30:47.026Z,15.04
2018-11-23T11:33:14.224Z,15.28
2018-11-23T11:35:41.552Z,15.92
2018-11-23T11:38:08.800Z,16.29
2018-11-23T11:40:36.042Z,17.24
2018-11-23T11:43:03.305Z,17.08
2018-11-23T11:45:30.484Z,16.09
2018-11-23T11:47:57.705Z,16.64
2018-11-23T11:50:24.956Z,15.46
2018-11-23T11:52:52.145Z,14.65
2018-11-23T11:55:20.085Z,14.70
2018-11-23T11:57:47.779Z,14.85
2018-11-23T12:00:18.262Z,15.22
2018-11-23T12:02:45.723Z,15.83
2018-11-23T12:05:13.379Z,15.73
2018-11-23T12:07:40.701Z,15.20
2018-11-23T12:10:11.429Z,14.91
2018-11-23T12:12:42.355Z,15.19
2018-11-23T12:15:14.527Z,15.69
2018-11-23T12:17:42.101Z,15.19
2018-11-23T12:20:14.604Z,14.97
2018-11-23T12:22:42.026Z,14.95
2018-11-23T12:25:09.522Z,14.37
2018-11-23T12:27:36.790Z,13.96
2018-11-23T12:30:06.547Z,14.19
2018-11-23T12:32:33.794Z,13.87
2018-11-23T12:35:01.127Z,13.89
2018-11-23T12:37:28.446Z,14.37
2018-11-23T12:39:55.726Z,14.47
2018-11-23T12:42:23.470Z,14.80
2018-11-23T12:44:50.853Z,15.36
2018-11-23T12:47:18.133Z,15.67
2018-11-23T12:49:45.351Z,14.98
2018-11-23T12:52:12.582Z,15.25
2018-11-23T12:54:39.861Z,14.59
2018-11-23T12:57:07.074Z,14.17
2018-11-23T12:59:34.441Z,13.80
2018-11-23T13:02:01.985Z,13.40
2018-11-23T13:04:29.347Z,13.54
2018-11-23T13:06:57.056Z,13.36
2018-11-23T13:09:24.300Z,13.46
2018-11-23T13:11:51.594Z,13.43
2018-11-23T13:14:18.894Z,13.21
2018-11-23T13:16:47.353Z,13.24
2018-11-23T13:19:14.641Z,12.94
2018-11-23T13:21:41.895Z,12.90
2018-11-23T13:24:09.169Z,12.83
2018-11-23T13:26:36.442Z,12.68
2018-11-23T13:29:15.657Z,12.59
2018-11-23T13:31:31.222Z,12.49
2018-11-23T13:33:58.492Z,12.55
2018-11-23T13:36:25.714Z,12.25
2018-11-23T13:38:53.430Z,12.22
2018-11-23T13:41:20.598Z,12.08
2018-11-23T13:43:51.248Z,12.01
2018-11-23T13:46:18.488Z,11.95
2018-11-23T13:48:45.746Z,11.72
2018-11-23T13:51:12.970Z,11.61
2018-11-23T13:53:40.284Z,11.47
2018-11-23T13:56:08.294Z,11.42
2018-11-23T13:58:35.568Z,11.33
2018-11-23T14:01:02.835Z,11.33
2018-11-23T14:03:30.131Z,11.27
2018-11-23T14:05:57.351Z,11.19
2018-11-23T14:08:24.631Z,11.07
2018-11-23T14:10:51.832Z,11.12
2018-11-23T14:13:19.109Z,10.95
2018-11-23T14:15:46.367Z,11.09
2018-11-23T14:18:13.628Z,11.00
2018-11-23T14:20:40.823Z,10.99
2018-11-23T14:23:08.116Z,10.73
2018-11-23T14:25:35.381Z,10.63
2018-11-23T14:28:02.742Z,10.55
2018-11-23T14:30:31.411Z,10.30
2018-11-23T14:32:59.182Z,10.30
2018-11-23T14:35:28.696Z,10.37
2018-11-23T14:37:56.606Z,10.38
2018-11-23T14:40:23.989Z,10.40
2018-11-23T14:42:51.498Z,10.31
2018-11-23T14:45:21.974Z,10.31
2018-11-23T14:47:49.988Z,10.31
2018-11-23T14:50:19.207Z,10.30
2018-11-23T14:52:47.744Z,10.22
2018-11-23T14:55:15.305Z,10.16
2018-11-23T14:57:43.121Z,9.96
2018-11-23T15:00:33.488Z,9.89
2018-11-23T15:03:04.439Z,9.92
2018-11-23T15:05:31.787Z,9.89
2018-11-23T15:08:02.660Z,9.86
2018-11-23T15:10:31.120Z,9.86
2018-11-23T15:12:59.573Z,9.77
2018-11-23T15:15:28.232Z,9.70
2018-11-23T15:17:56.156Z,9.62
2018-11-23T15:20:25.163Z,9.51
2018-11-23T15:22:56.141Z,9.51
2018-11-23T15:25:23.420Z,9.21
2018-11-23T15:27:57.552Z,9.12
2018-11-23T15:30:28.240Z,8.99
2018-11-23T15:32:55.915Z,9.08
2018-11-23T15:35:23.199Z,9.07
2018-11-23T15:37:50.599Z,9.03
2018-11-23T15:40:20.432Z,9.01
2018-11-23T15:42:48.382Z,8.88
2018-11-23T15:45:19.965Z,8.96
2018-11-23T15:47:48.062Z,8.89
2018-11-23T15:50:17.821Z,8.84
2018-11-23T15:52:45.470Z,8.85
2018-11-23T15:55:15.520Z,8.80
2018-11-23T15:57:43.467Z,8.74
2018-11-23T16:00:13.935Z,8.68
2018-11-23T16:02:41.681Z,8.60
2018-11-23T16:05:09.883Z,8.57
2018-11-23T16:07:42.166Z,8.58
2018-11-23T16:10:18.753Z,8.57
2018-11-23T16:12:47.360Z,8.52
2018-11-23T16:15:14.650Z,8.51
2018-11-23T16:17:41.899Z,8.42
2018-11-23T16:20:12.861Z,8.41
2018-11-23T16:22:44.496Z,8.31
2018-11-23T16:25:16.882Z,8.33
2018-11-23T16:27:45.399Z,8.26
2018-11-23T16:30:17.567Z,8.23
2018-11-23T16:32:47.374Z,8.22
2018-11-23T16:35:16.353Z,8.14
2018-11-23T16:37:43.708Z,8.07
2018-11-23T16:40:13.058Z,8.07
2018-11-23T16:42:40.345Z,8.10
2018-11-23T16:45:11.935Z,8.09
2018-11-23T16:47:39.421Z,8.06
2018-11-23T16:50:12.541Z,8.05
2018-11-23T16:52:40.531Z,7.98
2018-11-23T16:55:09.165Z,7.98
2018-11-23T16:57:36.481Z,8.00
2018-11-23T17:00:04.837Z,7.98
2018-11-23T17:02:32.082Z,7.80
2018-11-23T17:04:59.260Z,7.21
2018-11-23T17:07:26.501Z,7.71
2018-11-23T17:09:53.715Z,7.79
2018-11-23T17:12:21.118Z,7.78
2018-11-23T17:14:48.394Z,7.79
2018-11-23T17:17:15.673Z,7.78
2018-11-23T17:19:42.940Z,7.72
2018-11-23T17:22:10.118Z,7.57
2018-11-23T17:24:37.525Z,7.56
2018-11-23T17:27:04.880Z,7.50
2018-11-23T17:29:32.273Z,7.38
2018-11-23T17:31:59.535Z,7.33
2018-11-23T17:34:26.845Z,7.31
2018-11-23T17:36:54.092Z,7.22
2018-11-23T17:39:21.341Z,7.22
2018-11-23T17:41:48.566Z,7.17
2018-11-23T17:44:15.786Z,7.11
2018-11-23T17:46:43.040Z,6.95
2018-11-23T17:49:12.234Z,6.85
2018-11-23T17:51:39.524Z,6.74
2018-11-23T17:54:06.756Z,6.61
2018-11-23T17:56:34.000Z,6.54
2018-11-23T17:59:01.248Z,6.62
2018-11-23T18:01:28.472Z,6.35
2018-11-23T18:03:55.775Z,6.40
2018-11-23T18:06:23.066Z,6.28
2018-11-23T18:08:50.353Z,6.21
2018-11-23T18:11:17.736Z,6.24
2018-11-23T18:13:45.389Z,6.28
2018-11-23T18:16:12.582Z,6.34
2018-11-23T18:18:39.837Z,6.33
2018-11-23T18:21:07.195Z,6.31
2018-11-23T18:23:34.406Z,6.20
2018-11-23T18:26:01.597Z,6.22
2018-11-23T18:28:28.862Z,6.09
2018-11-23T18:30:56.119Z,6.16
2018-11-23T18:33:23.379Z,6.12
2018-11-23T18:35:50.633Z,6.05
2018-11-23T18:38:17.838Z,6.03
2018-11-23T18:40:45.036Z,5.94
2018-11-23T18:43:12.311Z,5.94
2018-11-23T18:45:39.579Z,5.90
2018-11-23T18:48:06.841Z,5.90
2018-11-23T18:50:34.129Z,5.93
2018-11-23T18:53:01.356Z,5.84
2018-11-23T18:55:28.606Z,5.83
2018-11-23T18:57:55.908Z,5.83
2018-11-23T19:00:24.868Z,5.81
2018-11-23T19:02:52.095Z,5.75
2018-11-23T19:05:20.755Z,5.77
2018-11-23T19:07:47.982Z,5.65
2018-11-23T19:10:15.261Z,5.68
2018-11-23T19:12:42.500Z,5.64
2018-11-23T19:15:12.071Z,5.65
2018-11-23T19:17:39.313Z,5.60
2018-11-23T19:20:09.692Z,5.60
2018-11-23T19:22:36.890Z,5.61
2018-11-23T19:25:04.492Z,5.60
2018-11-23T19:27:31.769Z,5.52
2018-11-23T19:29:59.036Z,5.38
2018-11-23T19:32:26.280Z,5.24
2018-11-23T19:34:53.527Z,5.21
2018-11-23T19:37:20.744Z,5.26
2018-11-23T19:39:47.977Z,5.03
2018-11-23T19:42:15.234Z,5.03
2018-11-23T19:44:42.485Z,5.17
2018-11-23T19:47:09.791Z,5.15
2018-11-23T19:49:37.032Z,4.86
2018-11-23T19:52:04.432Z,4.86
2018-11-23T19:54:35.630Z,4.96
2018-11-23T19:57:02.931Z,4.96
2018-11-23T19:59:31.916Z,5.13
2018-11-23T20:02:02.017Z,5.15
2018-11-23T20:04:29.270Z,5.13
2018-11-23T20:06:59.702Z,5.11
2018-11-23T20:09:26.949Z,5.12
2018-11-23T20:11:54.220Z,5.16
2018-11-23T20:14:21.501Z,5.16
2018-11-23T20:16:48.733Z,5.18
2018-11-23T20:19:16.017Z,5.07
2018-11-23T20:21:43.336Z,5.14
2018-11-23T20:24:10.556Z,5.17
2018-11-23T20:26:37.828Z,5.12
2018-11-23T20:29:05.273Z,5.09
2018-11-23T20:31:32.552Z,5.06
2018-11-23T20:33:59.801Z,4.85
2018-11-23T20:36:27.109Z,4.97
2018-11-23T20:38:54.427Z,4.91
2018-11-23T20:41:21.720Z,4.72
2018-11-23T20:43:49.080Z,4.82
2018-11-23T20:46:16.374Z,4.84
2018-11-23T20:48:43.638Z,4.96
2018-11-23T20:51:11.074Z,4.91
2018-11-23T20:53:38.379Z,4.91
2018-11-23T20:56:05.799Z,4.99
2018-11-23T20:58:47.435Z,5.00
2018-11-23T21:01:15.147Z,5.06
2018-11-23T21:03:42.487Z,4.95
2018-11-23T21:06:09.759Z,4.89
2018-11-23T21:08:37.130Z,4.90
2018-11-23T21:11:04.867Z,4.96
2018-11-23T21:13:32.127Z,4.98
2018-11-23T21:15:59.498Z,4.66
2018-11-23T21:18:26.739Z,4.72
2018-11-23T21:20:53.967Z,4.92
2018-11-23T21:23:21.291Z,4.78
2018-11-23T21:25:48.554Z,4.75
2018-11-23T21:28:15.825Z,4.78
2018-11-23T21:30:43.130Z,4.67
2018-11-23T21:33:10.423Z,4.55
2018-11-23T21:35:37.765Z,4.73
2018-11-23T21:38:05.230Z,4.83
2018-11-23T21:40:32.511Z,4.80
2018-11-23T21:42:59.793Z,4.70
2018-11-23T21:45:27.125Z,4.52
2018-11-23T21:47:54.411Z,4.41
2018-11-23T21:50:25.601Z,4.51
2018-11-23T21:52:49.127Z,4.60
2018-11-23T21:55:24.069Z,4.76
2018-11-23T21:57:52.411Z,4.90
2018-11-23T22:00:19.757Z,4.97
2018-11-23T22:02:47.007Z,4.95
2018-11-23T22:05:14.317Z,4.88
2018-11-23T22:07:41.681Z,4.61
2018-11-23T22:10:14.020Z,4.55
2018-11-23T22:12:41.318Z,4.52
2018-11-23T22:15:11.828Z,4.59
2018-11-23T22:17:39.066Z,4.69
2018-11-23T22:20:12.435Z,4.76
2018-11-23T22:22:39.885Z,3.91
2018-11-23T22:25:09.399Z,4.81
2018-11-23T22:27:36.624Z,4.73
2018-11-23T22:30:09.526Z,4.81
2018-11-23T22:32:36.734Z,4.87
2018-11-23T22:35:04.218Z,4.90
2018-11-23T22:37:34.890Z,4.88
2018-11-23T22:40:11.059Z,4.40
2018-11-23T22:42:38.525Z,4.13
2018-11-23T22:45:07.385Z,3.97
2018-11-23T22:47:34.753Z,3.94
2018-11-23T22:50:02.121Z,4.07
2018-11-23T22:52:29.511Z,4.22
2018-11-23T22:54:56.801Z,4.27
2018-11-23T22:57:24.084Z,4.30
2018-11-23T22:59:51.383Z,4.29
2018-11-23T23:02:18.601Z,4.34
2018-11-23T23:04:45.788Z,4.35
2018-11-23T23:07:13.001Z,4.41
2018-11-23T23:09:40.278Z,4.49
2018-11-23T23:12:07.698Z,4.55
2018-11-23T23:14:35.064Z,4.56
2018-11-23T23:17:02.404Z,4.67
2018-11-23T23:19:29.829Z,4.70
2018-11-23T23:21:57.159Z,4.72
2018-11-23T23:24:24.476Z,4.81
2018-11-23T23:26:51.878Z,4.93
2018-11-23T23:29:19.332Z,4.94
2018-11-23T23:31:46.888Z,4.93
2018-11-23T23:34:14.178Z,4.94
2018-11-23T23:36:41.600Z,4.85
2018-11-23T23:39:09.029Z,4.76
2018-11-23T23:41:39.528Z,4.84
2018-11-23T23:44:07.450Z,4.92
2018-11-23T23:46:34.828Z,4.76
2018-11-23T23:49:02.202Z,4.86
2018-11-23T23:51:29.504Z,4.97
2018-11-23T23:53:56.802Z,4.97
2018-11-23T23:56:24.065Z,5.10
2018-11-23T23:58:51.449Z,5.11
